Time;durP1;ratioP1;P1;durP2;ratioP2;P2;SDS_P1;SDS_P2;PMS_P1;PMS_P2;Temp;Humidity;BMP_temperature;BMP_pressure;BME280_temperature;BME280_humidity;BME280_pressure;Samples;Min_cycle;Max_cycle;Signal;HPM_P1;HPM_P2
2022/01/06 00:01:56;;;;;;;0.40;0.40;;;3.30;99.90;;;;;;5258219;28;20035;-75
2022/01/06 00:04:26;;;;;;;0.50;0.50;;;3.30;99.90;;;;;;5242260;28;20093;-75
2022/01/06 00:06:57;;;;;;;0.95;0.95;;;3.30;99.90;;;;;;5249216;28;20032;-75
2022/01/06 00:09:28;;;;;;;0.55;0.55;;;3.30;99.90;;;;;;5258277;28;20034;-76
2022/01/06 00:12:05;;;;;;;0.43;0.43;;;3.30;99.90;;;;;;5258672;28;20036;-75
2022/01/06 00:18:08;;;;;;;0.90;0.90;;;3.30;99.90;;;;;;5173142;28;20034;-77
2022/01/06 00:26:02;;;;;;;0.88;0.88;;;3.30;99.90;;;;;;5172401;28;20584;-74
2022/01/06 00:28:39;;;;;;;0.40;0.40;;;3.30;99.90;;;;;;5171348;28;20496;-76
2022/01/06 00:31:10;;;;;;;0.50;0.50;;;3.30;99.90;;;;;;5173264;28;20173;-76
2022/01/06 00:33:41;;;;;;;0.40;0.40;;;3.30;99.90;;;;;;5173480;28;20045;-76
2022/01/06 00:36:11;;;;;;;0.50;0.50;;;3.30;99.90;;;;;;5173745;28;20041;-77
2022/01/06 00:38:45;;;;;;;0.80;0.80;;;3.30;99.90;;;;;;5157605;28;20099;-76
2022/01/06 00:41:16;;;;;;;0.80;0.80;;;3.30;99.90;;;;;;5174071;28;20061;-76
2022/01/06 00:43:49;;;;;;;0.55;0.55;;;3.30;99.90;;;;;;5173623;28;20038;-76
2022/01/06 00:46:20;;;;;;;0.50;0.50;;;3.30;99.90;;;;;;5156941;28;20417;-76
2022/01/06 00:48:53;;;;;;;0.60;0.60;;;3.30;99.90;;;;;;5174028;28;20056;-76
2022/01/06 00:51:24;;;;;;;0.90;0.90;;;3.30;99.90;;;;;;5173623;28;20041;-76
2022/01/06 00:53:56;;;;;;;0.50;0.50;;;3.30;99.90;;;;;;5238804;28;20044;-76
2022/01/06 00:56:31;;;;;;;0.40;0.40;;;3.30;99.90;;;;;;5241780;28;20036;-76
2022/01/06 00:59:07;;;;;;;0.50;0.50;;;3.20;99.90;;;;;;5252390;28;20036;-76
2022/01/06 01:01:40;;;;;;;0.70;0.70;;;3.30;99.90;;;;;;5263272;28;20032;-74
2022/01/06 01:04:14;;;;;;;0.43;0.43;;;3.30;99.90;;;;;;5253979;28;20028;-75
2022/01/06 01:06:45;;;;;;;2.55;2.35;;;3.20;99.90;;;;;;5255413;28;20099;-75
2022/01/06 01:09:16;;;;;;;1.67;1.58;;;3.30;99.90;;;;;;5261514;28;20032;-75
2022/01/06 01:11:49;;;;;;;0.60;0.60;;;3.20;99.90;;;;;;5263001;28;20028;-75
2022/01/06 01:14:28;;;;;;;0.52;0.52;;;3.30;99.90;;;;;;5262336;28;20379;-74
2022/01/06 01:17:03;;;;;;;0.57;0.57;;;3.30;99.90;;;;;;5245309;28;20040;-74
2022/01/06 01:19:36;;;;;;;0.80;0.80;;;3.20;99.90;;;;;;5262215;28;20380;-75
2022/01/06 01:22:09;;;;;;;0.40;0.40;;;3.20;99.90;;;;;;5262826;28;20097;-75
2022/01/06 01:24:40;;;;;;;0.60;0.60;;;3.20;99.90;;;;;;5260698;28;20250;-75
2022/01/06 01:27:15;;;;;;;0.70;0.70;;;3.20;99.90;;;;;;5261926;28;20107;-74
2022/01/06 01:30:02;;;;;;;0.95;0.93;;;3.20;99.90;;;;;;5261150;28;20077;-75
2022/01/06 01:32:38;;;;;;;0.70;0.70;;;3.20;99.90;;;;;;5271369;28;20028;-75
2022/01/06 01:35:12;;;;;;;0.60;0.60;;;3.20;99.90;;;;;;5261977;28;20141;-74
2022/01/06 01:37:48;;;;;;;0.68;0.68;;;3.20;99.90;;;;;;5260064;28;20534;-75
2022/01/06 01:40:23;;;;;;;0.45;0.45;;;3.20;99.90;;;;;;5259870;28;20039;-76
2022/01/06 01:42:54;;;;;;;0.70;0.70;;;3.20;99.90;;;;;;5261529;28;20023;-74
2022/01/06 01:45:30;;;;;;;0.85;0.85;;;3.20;99.90;;;;;;5243545;28;20123;-75
2022/01/06 01:48:06;;;;;;;0.80;0.80;;;3.10;99.90;;;;;;5261161;28;20036;-74
2022/01/06 01:50:40;;;;;;;0.40;0.40;;;3.10;99.90;;;;;;5260201;28;20050;-74
2022/01/06 01:53:13;;;;;;;0.60;0.60;;;3.10;99.90;;;;;;5260107;28;20082;-74
2022/01/06 01:55:44;;;;;;;0.93;0.93;;;3.20;99.90;;;;;;5260368;28;20531;-75
2022/01/06 01:58:18;;;;;;;0.50;0.50;;;3.10;99.90;;;;;;5261493;28;20032;-74
2022/01/06 02:00:53;;;;;;;0.82;0.82;;;3.10;99.90;;;;;;5243298;28;20051;-74
2022/01/06 02:03:27;;;;;;;0.40;0.40;;;3.10;99.90;;;;;;5259312;28;20397;-75
2022/01/06 02:05:58;;;;;;;0.52;0.52;;;3.10;99.90;;;;;;5238643;28;20052;-75
2022/01/06 02:08:31;;;;;;;0.50;0.50;;;3.10;99.90;;;;;;5258352;28;20040;-75
2022/01/06 02:11:07;;;;;;;0.50;0.50;;;3.10;99.90;;;;;;5242654;28;20027;-77
2022/01/06 02:13:50;;;;;;;0.43;0.43;;;3.10;99.90;;;;;;5242826;28;20086;-74
2022/01/06 02:16:25;;;;;;;0.45;0.45;;;3.10;99.90;;;;;;5242433;28;20456;-75
2022/01/06 02:18:59;;;;;;;0.60;0.60;;;3.10;99.90;;;;;;5224935;28;20489;-74
2022/01/06 02:21:37;;;;;;;0.60;0.60;;;3.10;99.90;;;;;;5258910;28;20095;-74
2022/01/06 02:24:08;;;;;;;0.55;0.55;;;3.10;99.90;;;;;;5238683;28;20536;-75
2022/01/06 02:26:40;;;;;;;0.80;0.80;;;3.10;99.90;;;;;;5242519;28;20023;-74
2022/01/06 02:29:11;;;;;;;0.60;0.60;;;3.10;99.90;;;;;;5240048;28;20024;-74
2022/01/06 02:31:48;;;;;;;0.40;0.40;;;3.00;99.90;;;;;;5208660;28;20042;-74
2022/01/06 02:34:19;;;;;;;0.50;0.50;;;3.00;99.90;;;;;;5241395;28;20023;-75
2022/01/06 02:36:50;;;;;;;0.50;0.50;;;3.00;99.90;;;;;;5242129;28;20031;-74
2022/01/06 02:39:26;;;;;;;0.50;0.50;;;3.00;99.90;;;;;;5259064;28;20088;-74
2022/01/06 02:41:57;;;;;;;0.50;0.50;;;3.00;99.90;;;;;;5262399;28;20016;-75
2022/01/06 02:44:30;;;;;;;0.47;0.47;;;3.00;99.90;;;;;;5258995;28;20497;-75
2022/01/06 02:47:01;;;;;;;0.40;0.40;;;3.00;99.90;;;;;;5259796;28;20505;-75
2022/01/06 02:49:35;;;;;;;0.60;0.60;;;3.00;99.90;;;;;;5259771;28;20272;-74
2022/01/06 02:52:06;;;;;;;2.67;2.58;;;3.00;99.90;;;;;;5242004;28;20061;-75
2022/01/06 02:54:39;;;;;;;0.63;0.63;;;3.00;99.90;;;;;;5223342;28;20509;-75
2022/01/06 02:57:15;;;;;;;0.80;0.80;;;3.00;99.90;;;;;;5259750;28;20023;-74
2022/01/06 02:59:49;;;;;;;0.60;0.60;;;3.00;99.90;;;;;;5259603;28;20032;-75
2022/01/06 03:02:24;;;;;;;0.90;0.90;;;3.00;99.90;;;;;;5242132;28;20027;-75
2022/01/06 03:04:58;;;;;;;0.60;0.60;;;3.00;99.90;;;;;;5243741;27;20068;-75
2022/01/06 03:07:31;;;;;;;0.50;0.50;;;3.00;99.90;;;;;;5254086;28;20110;-75
2022/01/06 03:10:09;;;;;;;0.80;0.80;;;3.00;99.90;;;;;;5245057;28;20321;-74
2022/01/06 03:12:41;;;;;;;0.40;0.40;;;3.00;99.90;;;;;;5273008;28;20031;-74
2022/01/06 03:15:17;;;;;;;0.77;0.77;;;3.10;99.90;;;;;;5281196;28;20284;-74
2022/01/06 03:17:56;;;;;;;0.60;0.60;;;3.10;99.90;;;;;;5283057;28;20094;-74
2022/01/06 03:20:30;;;;;;;0.88;0.88;;;3.10;99.90;;;;;;5267136;28;20032;-75
2022/01/06 03:23:01;;;;;;;2.10;2.00;;;3.10;99.90;;;;;;5279361;28;20403;-75
2022/01/06 03:25:32;;;;;;;0.65;0.65;;;3.10;99.90;;;;;;5281847;28;20039;-75
2022/01/06 03:28:05;;;;;;;0.70;0.70;;;3.10;99.90;;;;;;5281203;28;20099;-75
2022/01/06 03:30:36;;;;;;;0.40;0.40;;;3.10;99.90;;;;;;5280676;28;20372;-75
2022/01/06 03:33:06;;;;;;;0.60;0.60;;;3.20;99.90;;;;;;5253820;28;20034;-74
2022/01/06 03:35:37;;;;;;;0.50;0.50;;;3.20;99.90;;;;;;5280376;28;20055;-75
2022/01/06 03:38:10;;;;;;;0.60;0.60;;;3.20;99.90;;;;;;5279854;28;20126;-75
2022/01/06 03:40:48;;;;;;;0.75;0.75;;;3.10;99.90;;;;;;5275956;28;20027;-75
2022/01/06 03:43:28;;;;;;;0.70;0.70;;;3.10;99.90;;;;;;5277895;27;20034;-74
2022/01/06 03:46:02;;;;;;;0.50;0.50;;;3.10;99.90;;;;;;5271407;28;20052;-77
2022/01/06 03:48:49;;;;;;;0.40;0.40;;;3.10;99.90;;;;;;5242209;28;20048;-75
2022/01/06 03:51:23;;;;;;;0.70;0.70;;;3.10;99.90;;;;;;5258951;28;20456;-74
2022/01/06 03:54:01;;;;;;;0.80;0.80;;;3.10;99.90;;;;;;5268828;28;20020;-75
2022/01/06 03:56:39;;;;;;;0.38;0.38;;;3.00;99.90;;;;;;5259124;28;20056;-75
2022/01/06 03:59:18;;;;;;;0.65;0.65;;;3.10;99.90;;;;;;5257669;28;20429;-75
2022/01/06 04:01:52;;;;;;;0.60;0.60;;;3.00;99.90;;;;;;5240977;28;20082;-74
2022/01/06 04:04:22;;;;;;;0.43;0.43;;;3.10;99.90;;;;;;5250267;28;20035;-75
2022/01/06 04:06:59;;;;;;;0.32;0.32;;;3.10;99.90;;;;;;5236097;28;20059;-75
2022/01/06 04:09:30;;;;;;;0.60;0.60;;;3.10;99.90;;;;;;5236658;28;20082;-75
2022/01/06 04:12:01;;;;;;;4.10;2.45;;;3.10;99.90;;;;;;5237437;28;20537;-75
2022/01/06 04:14:32;;;;;;;2.35;2.15;;;3.10;99.90;;;;;;5229994;28;20135;-75
2022/01/06 04:17:07;;;;;;;0.68;0.68;;;3.10;99.90;;;;;;5240975;28;20093;-75
2022/01/06 04:19:38;;;;;;;0.55;0.55;;;3.20;99.90;;;;;;5253286;28;20029;-76
2022/01/06 04:22:09;;;;;;;0.50;0.50;;;3.20;99.90;;;;;;5234373;28;20090;-75
2022/01/06 04:24:40;;;;;;;0.47;0.47;;;3.20;99.90;;;;;;5234652;28;20036;-75
2022/01/06 04:27:11;;;;;;;0.45;0.45;;;3.20;99.90;;;;;;5234314;28;20032;-76
2022/01/06 04:29:44;;;;;;;0.77;0.77;;;3.20;99.90;;;;;;5238015;28;20029;-76
2022/01/06 04:32:18;;;;;;;0.60;0.60;;;3.20;99.90;;;;;;5237088;28;20028;-76
2022/01/06 04:34:51;;;;;;;0.77;0.77;;;3.20;99.90;;;;;;5242326;28;20035;-75
2022/01/06 04:37:26;;;;;;;0.70;0.70;;;3.20;99.90;;;;;;5240823;28;20062;-75
2022/01/06 04:39:59;;;;;;;0.60;0.60;;;3.20;99.90;;;;;;5242399;28;20064;-76
2022/01/06 04:42:33;;;;;;;0.50;0.50;;;3.20;99.90;;;;;;5243435;28;20419;-76
2022/01/06 04:45:05;;;;;;;0.70;0.70;;;3.20;99.90;;;;;;5241296;28;20039;-75
2022/01/06 04:47:36;;;;;;;0.80;0.80;;;3.20;99.90;;;;;;5242879;28;20086;-76
2022/01/06 04:50:07;;;;;;;0.63;0.63;;;3.20;99.90;;;;;;5242130;28;20032;-75
2022/01/06 04:52:38;;;;;;;0.60;0.60;;;3.20;99.90;;;;;;5240809;28;20036;-76
2022/01/06 04:55:09;;;;;;;0.50;0.50;;;3.20;99.90;;;;;;5241527;28;20024;-76
2022/01/06 04:57:42;;;;;;;0.60;0.60;;;3.20;99.90;;;;;;5246538;28;20073;-76
2022/01/06 05:00:14;;;;;;;0.40;0.40;;;3.20;99.90;;;;;;5257377;28;20082;-77
2022/01/06 05:02:48;;;;;;;0.60;0.60;;;3.20;99.90;;;;;;5240209;28;20036;-76
2022/01/06 05:05:24;;;;;;;0.55;0.55;;;3.30;99.90;;;;;;5213892;28;20045;-76
2022/01/06 05:07:58;;;;;;;0.60;0.60;;;3.30;99.90;;;;;;5238869;28;20040;-76
2022/01/06 05:10:34;;;;;;;0.90;0.90;;;3.20;99.90;;;;;;5240589;28;20028;-76
2022/01/06 05:13:08;;;;;;;0.50;0.50;;;3.30;99.90;;;;;;5241067;28;20021;-76
2022/01/06 05:15:39;;;;;;;0.80;0.80;;;3.20;99.90;;;;;;5220661;28;20395;-75
2022/01/06 05:18:12;;;;;;;0.50;0.50;;;3.20;99.90;;;;;;5239054;28;20032;-75
2022/01/06 05:20:46;;;;;;;0.80;0.80;;;3.20;99.90;;;;;;5223001;28;20028;-75
2022/01/06 05:23:19;;;;;;;0.50;0.50;;;3.20;99.90;;;;;;5239834;28;20043;-75
2022/01/06 05:25:50;;;;;;;0.85;0.85;;;3.20;99.90;;;;;;5239291;28;20055;-76
2022/01/06 05:28:23;;;;;;;0.60;0.60;;;3.20;99.90;;;;;;5238805;28;20029;-76
2022/01/06 05:30:57;;;;;;;1.00;1.00;;;3.10;99.90;;;;;;5238869;28;20496;-76
2022/01/06 05:33:31;;;;;;;0.50;0.50;;;3.20;99.90;;;;;;5237340;28;20389;-76
2022/01/06 05:36:03;;;;;;;0.50;0.50;;;3.20;99.90;;;;;;5237642;28;20320;-76
2022/01/06 05:38:34;;;;;;;0.60;0.60;;;3.10;99.90;;;;;;5240356;28;20626;-76
2022/01/06 05:41:10;;;;;;;0.52;0.52;;;3.10;99.90;;;;;;5239218;28;20032;-76
2022/01/06 05:43:45;;;;;;;0.63;0.63;;;3.10;99.90;;;;;;5245753;28;20040;-75
2022/01/06 05:46:19;;;;;;;0.50;0.50;;;3.10;99.90;;;;;;5248766;28;20163;-76
2022/01/06 05:48:57;;;;;;;0.57;0.57;;;3.10;99.90;;;;;;5223519;28;20033;-75
2022/01/06 05:51:27;;;;;;;0.60;0.60;;;3.00;99.90;;;;;;5256567;28;20024;-76
2022/01/06 05:54:01;;;;;;;0.50;0.50;;;3.10;99.90;;;;;;5260232;28;20330;-75
2022/01/06 05:56:34;;;;;;;0.70;0.70;;;3.10;99.90;;;;;;5224252;28;20428;-76
2022/01/06 05:59:07;;;;;;;0.88;0.88;;;3.00;99.90;;;;;;5240018;28;20067;-75
2022/01/06 06:01:46;;;;;;;0.60;0.60;;;2.90;99.90;;;;;;5256767;28;20240;-75
2022/01/06 06:04:19;;;;;;;0.40;0.40;;;2.90;99.90;;;;;;5230551;28;20063;-75
2022/01/06 06:06:51;;;;;;;0.60;0.60;;;2.90;99.90;;;;;;5258669;28;20562;-76
2022/01/06 06:09:24;;;;;;;0.60;0.60;;;2.90;99.90;;;;;;5257769;28;20067;-75
2022/01/06 06:12:01;;;;;;;0.40;0.40;;;2.90;99.90;;;;;;5276095;28;20039;-76
2022/01/06 06:14:37;;;;;;;0.50;0.50;;;2.90;99.90;;;;;;5244318;28;20023;-76
2022/01/06 06:17:08;;;;;;;0.52;0.52;;;2.90;99.90;;;;;;5235701;28;20115;-75
2022/01/06 06:19:44;;;;;;;0.57;0.57;;;2.80;99.90;;;;;;5260517;28;20043;-74
2022/01/06 06:22:20;;;;;;;0.40;0.40;;;2.80;99.90;;;;;;5258620;28;20119;-75
2022/01/06 06:24:51;;;;;;;0.60;0.60;;;2.90;99.90;;;;;;5263270;28;20074;-75
2022/01/06 06:27:25;;;;;;;0.60;0.60;;;2.90;99.90;;;;;;5255178;28;20475;-75
2022/01/06 06:29:56;;;;;;;0.53;0.53;;;2.90;99.90;;;;;;5254901;28;20525;-74
2022/01/06 06:32:28;;;;;;;0.50;0.50;;;2.90;99.90;;;;;;5258527;28;20296;-75
2022/01/06 06:34:59;;;;;;;1.23;1.17;;;2.90;99.90;;;;;;5267748;28;20038;-75
2022/01/06 06:37:30;;;;;;;0.40;0.40;;;3.00;99.90;;;;;;5235531;28;20044;-74
2022/01/06 06:40:07;;;;;;;0.45;0.45;;;3.00;99.90;;;;;;5267947;28;20103;-74
2022/01/06 06:42:41;;;;;;;0.63;0.63;;;3.00;99.90;;;;;;5242372;28;20060;-74
2022/01/06 06:45:17;;;;;;;0.50;0.50;;;3.00;99.90;;;;;;5259702;28;20422;-74
2022/01/06 06:47:48;;;;;;;0.82;0.82;;;3.00;99.90;;;;;;5242239;28;20032;-75
2022/01/06 06:50:21;;;;;;;0.40;0.40;;;3.00;99.90;;;;;;5256190;28;20054;-75
2022/01/06 06:52:54;;;;;;;0.50;0.50;;;3.00;99.90;;;;;;5245954;28;20031;-74
2022/01/06 06:55:30;;;;;;;0.60;0.60;;;3.10;99.90;;;;;;5253244;28;20237;-75
2022/01/06 06:58:05;;;;;;;0.52;0.52;;;3.10;99.90;;;;;;5251235;28;20032;-74
2022/01/06 07:00:36;;;;;;;0.50;0.50;;;3.10;99.90;;;;;;5254610;28;20059;-77
2022/01/06 07:03:10;;;;;;;1.35;0.70;;;3.20;99.90;;;;;;5220917;28;20028;-76
2022/01/06 07:05:43;;;;;;;2.58;1.45;;;3.20;99.90;;;;;;5261402;28;20058;-75
2022/01/06 07:08:16;;;;;;;0.77;0.77;;;3.20;99.90;;;;;;5256878;28;20090;-75
2022/01/06 07:10:48;;;;;;;0.40;0.40;;;3.20;99.90;;;;;;5222482;28;20040;-74
2022/01/06 07:13:20;;;;;;;0.60;0.60;;;3.20;99.90;;;;;;5223759;28;20036;-76
2022/01/06 07:15:51;;;;;;;0.50;0.50;;;3.20;99.90;;;;;;5259119;28;20024;-75
2022/01/06 07:18:21;;;;;;;0.50;0.50;;;3.20;99.90;;;;;;5223377;28;20028;-75
2022/01/06 07:20:55;;;;;;;0.50;0.50;;;3.20;99.90;;;;;;5252028;28;20084;-75
2022/01/06 07:23:26;;;;;;;0.65;0.65;;;3.20;99.90;;;;;;5248288;28;20035;-75
2022/01/06 07:25:57;;;;;;;0.40;0.40;;;3.20;99.90;;;;;;5247501;28;20096;-75
2022/01/06 07:28:30;;;;;;;0.40;0.40;;;3.20;99.90;;;;;;5237711;28;20038;-75
2022/01/06 07:31:04;;;;;;;0.60;0.60;;;3.20;99.90;;;;;;5240930;28;20104;-75
2022/01/06 07:33:38;;;;;;;1.13;1.03;;;3.20;99.90;;;;;;5233243;28;20048;-75
2022/01/06 07:36:15;;;;;;;0.60;0.60;;;3.30;99.90;;;;;;5278179;28;20556;-75
2022/01/06 07:38:51;;;;;;;0.70;0.70;;;3.30;99.90;;;;;;5243750;28;20043;-75
2022/01/06 07:41:22;;;;;;;0.40;0.40;;;3.30;99.90;;;;;;5246077;28;20055;-74
2022/01/06 07:43:53;;;;;;;0.73;0.73;;;3.30;99.90;;;;;;5271486;28;20253;-74
2022/01/06 07:46:29;;;;;;;0.50;0.50;;;3.40;99.90;;;;;;5254972;28;20023;-74
2022/01/06 07:49:03;;;;;;;0.60;0.60;;;3.40;99.90;;;;;;5250661;28;20081;-75
2022/01/06 07:51:40;;;;;;;0.50;0.50;;;3.40;99.90;;;;;;5257566;28;20055;-75
2022/01/06 07:54:13;;;;;;;0.43;0.43;;;3.40;99.90;;;;;;5261063;28;20044;-74
2022/01/06 07:56:46;;;;;;;0.85;0.85;;;3.40;99.90;;;;;;5241778;28;20050;-74
2022/01/06 07:59:22;;;;;;;1.73;1.65;;;3.50;99.90;;;;;;5237142;28;20047;-75
2022/01/06 08:01:52;;;;;;;0.50;0.50;;;3.60;99.90;;;;;;5262047;28;20099;-74
2022/01/06 08:04:29;;;;;;;0.50;0.50;;;3.60;99.90;;;;;;5251006;28;20024;-75
2022/01/06 08:07:02;;;;;;;0.45;0.45;;;3.70;99.90;;;;;;5253571;28;20043;-74
2022/01/06 08:09:43;;;;;;;1.00;1.00;;;3.70;99.90;;;;;;5244903;28;20889;-75
2022/01/06 08:12:17;;;;;;;0.70;0.70;;;3.70;99.90;;;;;;5245485;28;20337;-75
2022/01/06 08:14:53;;;;;;;0.70;0.70;;;3.60;99.90;;;;;;5258811;28;20054;-75
2022/01/06 08:17:26;;;;;;;0.73;0.73;;;3.70;99.90;;;;;;5245271;28;20036;-75
2022/01/06 08:19:57;;;;;;;0.50;0.50;;;3.60;99.90;;;;;;5258524;28;20044;-75
2022/01/06 08:22:29;;;;;;;0.73;0.73;;;3.70;99.90;;;;;;5275878;28;20536;-75
2022/01/06 08:25:00;;;;;;;0.60;0.60;;;3.80;99.90;;;;;;5274671;28;20040;-75
2022/01/06 08:27:31;;;;;;;1.50;1.40;;;3.80;99.90;;;;;;5261168;28;20052;-75
2022/01/06 08:30:08;;;;;;;0.60;0.60;;;3.90;99.90;;;;;;5250018;28;20032;-76
2022/01/06 08:32:44;;;;;;;0.52;0.52;;;4.00;99.90;;;;;;5236794;28;20052;-75
2022/01/06 08:35:15;;;;;;;0.50;0.50;;;4.00;99.90;;;;;;5240798;28;20533;-75
2022/01/06 08:37:50;;;;;;;0.50;0.50;;;4.10;99.90;;;;;;5260361;28;20384;-75
2022/01/06 08:40:22;;;;;;;0.93;0.93;;;4.20;99.90;;;;;;5207514;28;20036;-76
2022/01/06 08:42:55;;;;;;;0.60;0.60;;;4.40;99.90;;;;;;5259095;28;20036;-75
2022/01/06 08:45:28;;;;;;;0.70;0.70;;;4.30;99.90;;;;;;5253111;28;20117;-75
2022/01/06 08:47:59;;;;;;;0.90;0.90;;;4.50;99.90;;;;;;5238966;28;20052;-76
2022/01/06 08:50:30;;;;;;;0.70;0.70;;;4.50;99.90;;;;;;5253154;28;20049;-75
2022/01/06 08:53:04;;;;;;;0.65;0.65;;;4.50;99.90;;;;;;5259140;28;20315;-75
2022/01/06 08:55:35;;;;;;;0.50;0.50;;;4.50;99.90;;;;;;5260090;28;20044;-75
2022/01/06 08:58:06;;;;;;;0.40;0.40;;;4.60;99.90;;;;;;5251961;28;20352;-75
2022/01/06 09:00:39;;;;;;;0.50;0.50;;;4.70;99.90;;;;;;5243256;28;20056;-77
2022/01/06 09:03:13;;;;;;;0.70;0.70;;;4.70;99.90;;;;;;5255279;28;20036;-75
2022/01/06 09:05:52;;;;;;;0.60;0.60;;;4.60;99.90;;;;;;5263465;28;20078;-75
2022/01/06 09:08:25;;;;;;;0.68;0.68;;;4.70;99.90;;;;;;5218465;28;20043;-74
2022/01/06 09:11:00;;;;;;;0.63;0.63;;;4.80;99.90;;;;;;5270143;28;20158;-74
2022/01/06 09:13:36;;;;;;;0.60;0.60;;;4.70;99.90;;;;;;5268898;28;20113;-74
2022/01/06 09:16:15;;;;;;;0.60;0.60;;;4.60;99.90;;;;;;5256498;28;20048;-74
2022/01/06 09:18:46;;;;;;;0.60;0.60;;;4.70;99.90;;;;;;5241975;28;20074;-75
2022/01/06 09:21:22;;;;;;;0.73;0.73;;;4.60;99.90;;;;;;5253135;28;20469;-75
2022/01/06 09:23:57;;;;;;;0.50;0.50;;;4.60;99.90;;;;;;5261775;28;20099;-75
2022/01/06 09:26:27;;;;;;;;;;;4.50;99.90;;;;;;5252816;28;20032;-77
2022/01/06 09:29:05;;;;;;;0.50;0.50;;;4.50;99.90;;;;;;5251036;28;19918;-75
2022/01/06 09:31:39;;;;;;;0.60;0.60;;;4.60;99.90;;;;;;5250534;28;20031;-75
2022/01/06 09:34:18;;;;;;;0.75;0.75;;;4.80;99.90;;;;;;5234234;28;20090;-75
2022/01/06 09:36:49;;;;;;;0.50;0.50;;;4.80;99.90;;;;;;5225418;28;20377;-75
2022/01/06 09:39:22;;;;;;;0.52;0.52;;;4.60;99.90;;;;;;5252945;28;20042;-74
2022/01/06 09:41:58;;;;;;;0.63;0.63;;;4.50;99.90;;;;;;5249614;28;20031;-74
2022/01/06 09:44:31;;;;;;;0.60;0.60;;;4.70;99.90;;;;;;5247864;28;20055;-75
2022/01/06 09:47:07;;;;;;;0.85;0.85;;;4.80;99.90;;;;;;5229108;28;20429;-74
2022/01/06 09:49:42;;;;;;;0.98;0.98;;;4.90;99.90;;;;;;5248781;28;20040;-75
2022/01/06 09:52:13;;;;;;;0.70;0.70;;;5.00;99.90;;;;;;5255969;28;20047;-74
2022/01/06 09:54:45;;;;;;;0.50;0.50;;;5.00;99.90;;;;;;5238838;28;20102;-74
2022/01/06 09:57:20;;;;;;;0.60;0.60;;;5.20;99.90;;;;;;5239058;28;20032;-75
2022/01/06 09:59:54;;;;;;;0.55;0.55;;;5.50;99.90;;;;;;5240337;28;20025;-74
2022/01/06 10:02:38;;;;;;;0.60;0.60;;;5.30;99.90;;;;;;5253202;28;20094;-74
2022/01/06 10:05:11;;;;;;;0.32;0.32;;;5.40;99.90;;;;;;5233231;28;20110;-74
2022/01/06 10:07:42;;;;;;;0.60;0.60;;;5.40;99.90;;;;;;5234772;28;20104;-75
2022/01/06 10:10:24;;;;;;;0.70;0.70;;;5.10;99.90;;;;;;5240433;28;20052;-76
2022/01/06 10:12:59;;;;;;;0.47;0.47;;;5.10;99.90;;;;;;5238336;28;20029;-75
2022/01/06 10:15:35;;;;;;;0.57;0.57;;;5.30;99.90;;;;;;5238897;28;20096;-74
2022/01/06 10:18:16;;;;;;;0.80;0.80;;;5.20;99.90;;;;;;5246554;28;20033;-74
2022/01/06 10:20:48;;;;;;;0.52;0.52;;;5.60;99.90;;;;;;5238409;28;20563;-74
2022/01/06 10:23:19;;;;;;;1.27;1.17;;;6.00;99.90;;;;;;5240529;28;20081;-74
2022/01/06 10:25:50;;;;;;;0.50;0.50;;;6.10;99.90;;;;;;5239745;28;20138;-74
2022/01/06 10:28:28;;;;;;;0.50;0.50;;;6.00;99.90;;;;;;5238531;28;20388;-74
2022/01/06 10:30:59;;;;;;;0.70;0.70;;;5.90;99.90;;;;;;5237633;28;20596;-74
2022/01/06 10:33:41;;;;;;;0.57;0.57;;;5.70;99.90;;;;;;5221424;28;20044;-75
2022/01/06 10:36:12;;;;;;;0.57;0.57;;;5.80;99.90;;;;;;5230710;28;20028;-74
2022/01/06 10:38:57;;;;;;;0.50;0.50;;;6.30;99.90;;;;;;5238452;28;20489;-74
2022/01/06 10:41:31;;;;;;;0.60;0.60;;;6.70;99.90;;;;;;5223663;28;20482;-74
2022/01/06 10:44:08;;;;;;;0.52;0.52;;;6.30;99.90;;;;;;5239988;28;20032;-75
2022/01/06 10:46:44;;;;;;;0.40;0.40;;;6.30;99.90;;;;;;5224110;28;20252;-75
2022/01/06 10:49:22;;;;;;;0.60;0.60;;;6.70;99.90;;;;;;5215544;28;20037;-76
2022/01/06 10:51:58;;;;;;;0.43;0.43;;;6.70;99.90;;;;;;5218948;28;20041;-74
2022/01/06 10:54:37;;;;;;;0.47;0.47;;;7.00;99.90;;;;;;5216388;28;20096;-75
2022/01/06 10:57:12;;;;;;;0.50;0.50;;;6.80;99.90;;;;;;5230733;28;20100;-76
2022/01/06 10:59:48;;;;;;;0.70;0.70;;;6.50;99.90;;;;;;5214649;28;20040;-75
2022/01/06 11:02:30;;;;;;;0.68;0.68;;;6.70;99.90;;;;;;5212693;28;20041;-77
2022/01/06 11:05:07;;;;;;;0.60;0.60;;;6.80;99.90;;;;;;5213550;28;20053;-75
2022/01/06 11:07:38;;;;;;;0.60;0.60;;;7.00;99.90;;;;;;5197908;28;20060;-77
2022/01/06 11:10:20;;;;;;;0.50;0.50;;;7.10;99.90;;;;;;5215326;28;20032;-76
2022/01/06 11:12:53;;;;;;;0.60;0.60;;;7.20;99.90;;;;;;5217364;28;20064;-76
2022/01/06 11:15:25;;;;;;;0.50;0.50;;;6.80;99.90;;;;;;5228789;28;20028;-75
2022/01/06 11:18:04;;;;;;;0.60;0.60;;;6.70;99.90;;;;;;5204252;28;20087;-75
2022/01/06 11:20:37;;;;;;;0.75;0.75;;;6.80;99.90;;;;;;5219401;28;20041;-76
2022/01/06 11:23:25;;;;;;;0.77;0.77;;;6.80;99.90;;;;;;5224542;28;20360;-75
2022/01/06 11:26:11;;;;;;;0.50;0.50;;;7.30;99.90;;;;;;5236997;28;20024;-74
2022/01/06 11:28:53;;;;;;;0.60;0.60;;;7.30;99.90;;;;;;5218226;28;20578;-74
2022/01/06 11:31:28;;;;;;;0.60;0.60;;;7.70;99.90;;;;;;5220223;28;20029;-75
2022/01/06 11:34:10;;;;;;;0.70;0.70;;;7.20;99.90;;;;;;5218051;28;20062;-76
2022/01/06 11:36:42;;;;;;;0.60;0.60;;;8.00;99.90;;;;;;5200669;28;20025;-74
2022/01/06 11:39:31;;;;;;;0.70;0.70;;;8.40;99.90;;;;;;5225532;28;20538;-74
2022/01/06 11:42:23;;;;;;;0.80;0.80;;;8.50;99.90;;;;;;5233924;28;20046;-74
2022/01/06 11:44:55;;;;;;;0.65;0.65;;;7.70;99.90;;;;;;5225651;28;20056;-74
2022/01/06 11:47:42;;;;;;;1.52;1.48;;;8.00;99.90;;;;;;5236465;28;20020;-75
2022/01/06 11:50:19;;;;;;;0.80;0.80;;;8.20;99.90;;;;;;5248314;28;20032;-76
2022/01/06 11:52:57;;;;;;;0.90;0.90;;;7.50;99.90;;;;;;5242036;28;20031;-74
2022/01/06 11:55:40;;;;;;;0.50;0.50;;;6.80;99.90;;;;;;5244683;28;20032;-75
2022/01/06 11:58:22;;;;;;;0.43;0.43;;;6.40;99.90;;;;;;5252122;28;20031;-75
2022/01/06 12:01:15;;;;;;;0.60;0.60;;;6.30;99.90;;;;;;5254614;28;20032;-75
2022/01/06 12:03:47;;;;;;;0.50;0.50;;;6.20;99.90;;;;;;5229772;28;20052;-74
2022/01/06 12:06:28;;;;;;;1.20;1.20;;;5.90;99.90;;;;;;5228900;28;20059;-75
2022/01/06 12:09:02;;;;;;;0.80;0.80;;;5.80;99.90;;;;;;5237984;28;20048;-75
2022/01/06 12:11:34;;;;;;;0.50;0.50;;;5.60;99.90;;;;;;5239378;28;20040;-76
2022/01/06 12:14:09;;;;;;;0.77;0.77;;;5.70;99.90;;;;;;5272424;28;20031;-74
2022/01/06 12:16:43;;;;;;;0.68;0.68;;;5.80;99.90;;;;;;5221757;28;20048;-74
2022/01/06 12:19:25;;;;;;;0.63;0.63;;;5.70;99.90;;;;;;5237940;28;20028;-76
2022/01/06 12:22:03;;;;;;;0.50;0.50;;;5.50;99.90;;;;;;5238510;28;20028;-75
2022/01/06 12:24:39;;;;;;;1.27;1.08;;;5.50;99.90;;;;;;5221578;28;20075;-75
2022/01/06 12:27:15;;;;;;;0.82;0.82;;;5.50;99.90;;;;;;5268782;28;20474;-75
2022/01/06 12:29:56;;;;;;;0.50;0.50;;;5.60;99.90;;;;;;5238479;28;20429;-74
2022/01/06 12:32:29;;;;;;;0.50;0.50;;;5.50;99.90;;;;;;5237138;28;20038;-74
2022/01/06 12:35:00;;;;;;;0.68;0.68;;;5.50;99.90;;;;;;5238516;28;20043;-74
2022/01/06 12:37:32;;;;;;;0.60;0.60;;;5.50;99.90;;;;;;5237720;28;20052;-76
2022/01/06 12:40:04;;;;;;;0.50;0.50;;;5.40;99.90;;;;;;5238226;28;20025;-74
2022/01/06 12:42:45;;;;;;;0.80;0.80;;;5.50;99.90;;;;;;5238141;28;20093;-74
2022/01/06 12:45:17;;;;;;;0.55;0.55;;;5.30;99.90;;;;;;5238540;28;20034;-74
2022/01/06 12:47:53;;;;;;;0.50;0.50;;;5.00;99.90;;;;;;5259997;28;20028;-74
2022/01/06 12:50:24;;;;;;;0.40;0.40;;;4.90;99.90;;;;;;5257606;28;20028;-74
2022/01/06 12:52:55;;;;;;;0.50;0.50;;;4.60;99.90;;;;;;5257822;28;20467;-74
2022/01/06 12:55:31;;;;;;;0.65;0.65;;;4.00;99.90;;;;;;5295185;27;20031;-73
2022/01/06 12:58:02;;;;;;;0.50;0.50;;;3.60;99.90;;;;;;5260127;28;20031;-74
2022/01/06 13:00:39;;;;;;;0.55;0.55;;;3.30;99.90;;;;;;5262489;28;20441;-72
2022/01/06 13:03:17;;;;;;;0.55;0.55;;;3.10;99.90;;;;;;5297122;27;20253;-73
2022/01/06 13:05:53;;;;;;;0.63;0.63;;;2.90;99.90;;;;;;5261196;28;20048;-73
2022/01/06 13:08:28;;;;;;;0.55;0.55;;;2.70;99.90;;;;;;5260764;28;20024;-74
2022/01/06 13:11:09;;;;;;;;;;;2.70;99.90;;;;;;5262519;28;20035;-73
2022/01/06 13:13:59;;;;;;;0.60;0.60;;;2.80;99.90;;;;;;5263460;28;19916;-73
2022/01/06 13:16:33;;;;;;;0.40;0.40;;;2.90;99.90;;;;;;5261722;28;20035;-73
2022/01/06 13:19:16;;;;;;;0.90;0.90;;;3.10;99.90;;;;;;5260607;28;20374;-73
2022/01/06 13:21:59;;;;;;;0.50;0.50;;;3.10;99.90;;;;;;5244852;28;20035;-74
2022/01/06 13:24:34;;;;;;;0.70;0.70;;;3.10;99.90;;;;;;5292229;27;20130;-74
2022/01/06 13:27:14;;;;;;;0.50;0.50;;;3.20;99.90;;;;;;5243934;28;20031;-73
2022/01/06 13:29:59;;;;;;;0.50;0.50;;;3.30;99.90;;;;;;5242488;28;20035;-74
2022/01/06 13:32:31;;;;;;;0.60;0.60;;;3.40;99.90;;;;;;5237526;28;20032;-74
2022/01/06 13:35:11;;;;;;;0.50;0.50;;;3.40;99.90;;;;;;5256729;28;20048;-74
2022/01/06 13:37:42;;;;;;;0.50;0.50;;;3.40;99.90;;;;;;5290293;27;20059;-74
2022/01/06 13:40:21;;;;;;;0.40;0.40;;;3.30;99.90;;;;;;5293953;27;20052;-74
2022/01/06 13:42:58;;;;;;;0.57;0.57;;;3.00;99.90;;;;;;5257257;28;20139;-73
2022/01/06 13:45:37;;;;;;;0.60;0.60;;;2.90;99.90;;;;;;5246201;28;20032;-73